sensor_id;sensor_type;location;lat;lon;timestamp;P1;durP1;ratioP1;P2;durP2;ratioP2
17494;SDS011;8864;51.970;4.614;2023-03-21T00:00:31;0.88;;;0.80;;
17494;SDS011;8864;51.970;4.614;2023-03-21T00:02:58;1.95;;;1.02;;
17494;SDS011;8864;51.970;4.614;2023-03-21T00:05:25;1.70;;;1.10;;
17494;SDS011;8864;51.970;4.614;2023-03-21T00:07:52;1.40;;;1.00;;
17494;SDS011;8864;51.970;4.614;2023-03-21T00:10:20;0.90;;;0.90;;
17494;SDS011;8864;51.970;4.614;2023-03-21T00:12:47;1.42;;;0.90;;
17494;SDS011;8864;51.970;4.614;2023-03-21T00:15:19;1.00;;;0.90;;
17494;SDS011;8864;51.970;4.614;2023-03-21T00:17:46;1.83;;;0.80;;
17494;SDS011;8864;51.970;4.614;2023-03-21T00:20:15;1.95;;;0.93;;
17494;SDS011;8864;51.970;4.614;2023-03-21T00:22:42;2.15;;;1.08;;
17494;SDS011;8864;51.970;4.614;2023-03-21T00:25:09;1.63;;;1.00;;
17494;SDS011;8864;51.970;4.614;2023-03-21T00:27:37;1.05;;;0.90;;
17494;SDS011;8864;51.970;4.614;2023-03-21T00:30:05;1.33;;;1.10;;
17494;SDS011;8864;51.970;4.614;2023-03-21T00:32:32;3.38;;;1.38;;
17494;SDS011;8864;51.970;4.614;2023-03-21T00:34:59;1.92;;;1.05;;
17494;SDS011;8864;51.970;4.614;2023-03-21T00:37:26;2.65;;;1.10;;
17494;SDS011;8864;51.970;4.614;2023-03-21T00:39:53;2.13;;;1.20;;
17494;SDS011;8864;51.970;4.614;2023-03-21T00:42:20;1.52;;;1.15;;
17494;SDS011;8864;51.970;4.614;2023-03-21T00:44:48;1.45;;;1.10;;
17494;SDS011;8864;51.970;4.614;2023-03-21T00:47:15;2.55;;;1.00;;
17494;SDS011;8864;51.970;4.614;2023-03-21T00:49:42;2.83;;;1.30;;
17494;SDS011;8864;51.970;4.614;2023-03-21T00:52:09;3.90;;;1.10;;
17494;SDS011;8864;51.970;4.614;2023-03-21T00:54:36;1.83;;;1.05;;
17494;SDS011;8864;51.970;4.614;2023-03-21T00:57:03;1.05;;;0.98;;
17494;SDS011;8864;51.970;4.614;2023-03-21T00:59:31;1.95;;;1.10;;
17494;SDS011;8864;51.970;4.614;2023-03-21T01:02:02;2.63;;;1.10;;
17494;SDS011;8864;51.970;4.614;2023-03-21T01:04:31;1.10;;;1.00;;
17494;SDS011;8864;51.970;4.614;2023-03-21T01:06:59;1.50;;;1.25;;
17494;SDS011;8864;51.970;4.614;2023-03-21T01:09:26;1.85;;;1.00;;
17494;SDS011;8864;51.970;4.614;2023-03-21T01:11:53;2.67;;;1.35;;
17494;SDS011;8864;51.970;4.614;2023-03-21T01:14:21;2.05;;;1.20;;
17494;SDS011;8864;51.970;4.614;2023-03-21T01:16:48;3.53;;;1.60;;
17494;SDS011;8864;51.970;4.614;2023-03-21T01:19:17;3.38;;;1.40;;
17494;SDS011;8864;51.970;4.614;2023-03-21T01:21:45;2.55;;;1.40;;
17494;SDS011;8864;51.970;4.614;2023-03-21T01:24:14;2.47;;;1.33;;
17494;SDS011;8864;51.970;4.614;2023-03-21T01:26:41;2.40;;;1.20;;
17494;SDS011;8864;51.970;4.614;2023-03-21T01:29:08;1.63;;;1.30;;
17494;SDS011;8864;51.970;4.614;2023-03-21T01:31:35;2.50;;;1.55;;
17494;SDS011;8864;51.970;4.614;2023-03-21T01:34:02;3.75;;;1.35;;
17494;SDS011;8864;51.970;4.614;2023-03-21T01:36:31;3.58;;;1.50;;
17494;SDS011;8864;51.970;4.614;2023-03-21T01:38:58;3.38;;;1.60;;
17494;SDS011;8864;51.970;4.614;2023-03-21T01:41:26;2.97;;;1.30;;
17494;SDS011;8864;51.970;4.614;2023-03-21T01:43:55;2.08;;;1.35;;
17494;SDS011;8864;51.970;4.614;2023-03-21T01:46:31;2.35;;;1.20;;
17494;SDS011;8864;51.970;4.614;2023-03-21T01:49:06;3.03;;;1.45;;
17494;SDS011;8864;51.970;4.614;2023-03-21T01:51:39;3.22;;;1.50;;
17494;SDS011;8864;51.970;4.614;2023-03-21T01:54:12;5.35;;;1.65;;
17494;SDS011;8864;51.970;4.614;2023-03-21T01:56:43;3.67;;;1.30;;
17494;SDS011;8864;51.970;4.614;2023-03-21T01:59:13;4.70;;;1.65;;
17494;SDS011;8864;51.970;4.614;2023-03-21T02:01:46;3.17;;;1.40;;
17494;SDS011;8864;51.970;4.614;2023-03-21T02:04:15;3.90;;;1.50;;
17494;SDS011;8864;51.970;4.614;2023-03-21T02:06:49;3.30;;;1.73;;
17494;SDS011;8864;51.970;4.614;2023-03-21T02:09:21;4.40;;;1.55;;
17494;SDS011;8864;51.970;4.614;2023-03-21T02:11:51;3.55;;;1.50;;
17494;SDS011;8864;51.970;4.614;2023-03-21T02:14:21;2.25;;;1.40;;
17494;SDS011;8864;51.970;4.614;2023-03-21T02:16:50;2.22;;;1.45;;
17494;SDS011;8864;51.970;4.614;2023-03-21T02:19:37;3.33;;;1.33;;
17494;SDS011;8864;51.970;4.614;2023-03-21T02:22:51;4.82;;;1.52;;
17494;SDS011;8864;51.970;4.614;2023-03-21T02:25:40;3.40;;;1.40;;
17494;SDS011;8864;51.970;4.614;2023-03-21T02:28:21;2.72;;;1.38;;
17494;SDS011;8864;51.970;4.614;2023-03-21T02:30:56;2.85;;;1.45;;
17494;SDS011;8864;51.970;4.614;2023-03-21T02:36:46;2.90;;;1.40;;
17494;SDS011;8864;51.970;4.614;2023-03-21T02:39:22;3.17;;;1.30;;
17494;SDS011;8864;51.970;4.614;2023-03-21T02:41:56;2.30;;;1.25;;
17494;SDS011;8864;51.970;4.614;2023-03-21T02:44:30;2.30;;;1.35;;
17494;SDS011;8864;51.970;4.614;2023-03-21T02:47:02;1.77;;;1.05;;
17494;SDS011;8864;51.970;4.614;2023-03-21T02:49:34;2.03;;;1.20;;
17494;SDS011;8864;51.970;4.614;2023-03-21T02:52:08;2.35;;;1.23;;
17494;SDS011;8864;51.970;4.614;2023-03-21T02:54:39;2.80;;;1.30;;
17494;SDS011;8864;51.970;4.614;2023-03-21T02:57:08;2.83;;;1.35;;
17494;SDS011;8864;51.970;4.614;2023-03-21T02:59:37;3.10;;;1.42;;
17494;SDS011;8864;51.970;4.614;2023-03-21T03:02:05;3.08;;;1.48;;
17494;SDS011;8864;51.970;4.614;2023-03-21T03:04:32;2.10;;;1.27;;
17494;SDS011;8864;51.970;4.614;2023-03-21T03:07:06;3.50;;;1.40;;
17494;SDS011;8864;51.970;4.614;2023-03-21T03:09:53;4.30;;;1.40;;
17494;SDS011;8864;51.970;4.614;2023-03-21T03:12:34;3.13;;;1.20;;
17494;SDS011;8864;51.970;4.614;2023-03-21T03:15:11;4.07;;;1.55;;
17494;SDS011;8864;51.970;4.614;2023-03-21T03:17:48;5.28;;;1.38;;
17494;SDS011;8864;51.970;4.614;2023-03-21T03:20:19;2.05;;;1.10;;
17494;SDS011;8864;51.970;4.614;2023-03-21T03:22:56;2.33;;;1.08;;
17494;SDS011;8864;51.970;4.614;2023-03-21T03:25:30;2.90;;;1.17;;
17494;SDS011;8864;51.970;4.614;2023-03-21T03:28:02;3.22;;;1.50;;
17494;SDS011;8864;51.970;4.614;2023-03-21T03:30:30;3.00;;;1.27;;
17494;SDS011;8864;51.970;4.614;2023-03-21T03:32:58;4.28;;;1.58;;
17494;SDS011;8864;51.970;4.614;2023-03-21T03:35:28;2.40;;;1.23;;
17494;SDS011;8864;51.970;4.614;2023-03-21T03:37:57;2.00;;;1.10;;
17494;SDS011;8864;51.970;4.614;2023-03-21T03:40:28;3.25;;;1.50;;
17494;SDS011;8864;51.970;4.614;2023-03-21T03:42:58;2.22;;;1.10;;
17494;SDS011;8864;51.970;4.614;2023-03-21T03:45:29;3.67;;;1.40;;
17494;SDS011;8864;51.970;4.614;2023-03-21T03:48:00;5.88;;;1.42;;
17494;SDS011;8864;51.970;4.614;2023-03-21T03:50:35;2.15;;;1.20;;
17494;SDS011;8864;51.970;4.614;2023-03-21T03:53:10;3.65;;;1.23;;
17494;SDS011;8864;51.970;4.614;2023-03-21T03:55:42;2.97;;;1.30;;
17494;SDS011;8864;51.970;4.614;2023-03-21T03:58:09;5.68;;;1.40;;
17494;SDS011;8864;51.970;4.614;2023-03-21T04:00:37;3.78;;;1.30;;
17494;SDS011;8864;51.970;4.614;2023-03-21T04:03:05;1.88;;;1.10;;
17494;SDS011;8864;51.970;4.614;2023-03-21T04:05:33;2.72;;;1.27;;
17494;SDS011;8864;51.970;4.614;2023-03-21T04:08:00;1.75;;;1.20;;
17494;SDS011;8864;51.970;4.614;2023-03-21T04:10:29;3.22;;;1.33;;
17494;SDS011;8864;51.970;4.614;2023-03-21T04:12:56;5.53;;;1.40;;
17494;SDS011;8864;51.970;4.614;2023-03-21T04:15:22;3.25;;;1.30;;
17494;SDS011;8864;51.970;4.614;2023-03-21T04:17:49;5.00;;;1.38;;
17494;SDS011;8864;51.970;4.614;2023-03-21T04:20:16;3.58;;;1.25;;
17494;SDS011;8864;51.970;4.614;2023-03-21T04:22:44;4.45;;;1.42;;
17494;SDS011;8864;51.970;4.614;2023-03-21T04:25:11;2.47;;;1.30;;
17494;SDS011;8864;51.970;4.614;2023-03-21T04:27:39;3.78;;;1.40;;
17494;SDS011;8864;51.970;4.614;2023-03-21T04:30:06;4.05;;;1.30;;
17494;SDS011;8864;51.970;4.614;2023-03-21T04:32:36;4.72;;;1.58;;
17494;SDS011;8864;51.970;4.614;2023-03-21T04:35:04;3.65;;;1.30;;
17494;SDS011;8864;51.970;4.614;2023-03-21T04:37:32;2.88;;;1.30;;
17494;SDS011;8864;51.970;4.614;2023-03-21T04:39:59;2.58;;;1.38;;
17494;SDS011;8864;51.970;4.614;2023-03-21T04:42:31;2.13;;;1.23;;
17494;SDS011;8864;51.970;4.614;2023-03-21T04:45:00;2.55;;;1.38;;
17494;SDS011;8864;51.970;4.614;2023-03-21T04:47:27;2.72;;;1.33;;
17494;SDS011;8864;51.970;4.614;2023-03-21T04:49:55;3.75;;;1.40;;
17494;SDS011;8864;51.970;4.614;2023-03-21T04:52:22;5.07;;;1.33;;
17494;SDS011;8864;51.970;4.614;2023-03-21T04:54:49;4.07;;;1.30;;
17494;SDS011;8864;51.970;4.614;2023-03-21T04:57:16;6.03;;;1.35;;
17494;SDS011;8864;51.970;4.614;2023-03-21T04:59:43;4.75;;;1.45;;
17494;SDS011;8864;51.970;4.614;2023-03-21T05:02:11;3.20;;;1.45;;
17494;SDS011;8864;51.970;4.614;2023-03-21T05:04:39;5.00;;;2.00;;
17494;SDS011;8864;51.970;4.614;2023-03-21T05:07:06;4.22;;;1.33;;
17494;SDS011;8864;51.970;4.614;2023-03-21T05:09:33;3.92;;;1.73;;
17494;SDS011;8864;51.970;4.614;2023-03-21T05:12:00;5.47;;;1.55;;
17494;SDS011;8864;51.970;4.614;2023-03-21T05:14:27;4.22;;;1.50;;
17494;SDS011;8864;51.970;4.614;2023-03-21T05:16:54;3.55;;;1.48;;
17494;SDS011;8864;51.970;4.614;2023-03-21T05:19:24;3.17;;;1.50;;
17494;SDS011;8864;51.970;4.614;2023-03-21T05:21:58;3.72;;;1.52;;
17494;SDS011;8864;51.970;4.614;2023-03-21T05:24:28;3.30;;;1.38;;
17494;SDS011;8864;51.970;4.614;2023-03-21T05:26:56;4.97;;;1.60;;
17494;SDS011;8864;51.970;4.614;2023-03-21T05:29:27;2.03;;;1.23;;
17494;SDS011;8864;51.970;4.614;2023-03-21T05:31:54;2.83;;;1.40;;
17494;SDS011;8864;51.970;4.614;2023-03-21T05:34:23;3.88;;;1.10;;
17494;SDS011;8864;51.970;4.614;2023-03-21T05:36:51;4.45;;;1.30;;
17494;SDS011;8864;51.970;4.614;2023-03-21T05:39:18;2.75;;;1.30;;
17494;SDS011;8864;51.970;4.614;2023-03-21T05:41:45;3.85;;;1.63;;
17494;SDS011;8864;51.970;4.614;2023-03-21T05:44:12;4.95;;;1.90;;
17494;SDS011;8864;51.970;4.614;2023-03-21T05:46:39;3.05;;;1.42;;
17494;SDS011;8864;51.970;4.614;2023-03-21T05:49:08;6.05;;;1.80;;
17494;SDS011;8864;51.970;4.614;2023-03-21T05:51:37;3.00;;;1.52;;
17494;SDS011;8864;51.970;4.614;2023-03-21T05:54:04;4.60;;;1.83;;
17494;SDS011;8864;51.970;4.614;2023-03-21T05:56:31;4.30;;;1.50;;
17494;SDS011;8864;51.970;4.614;2023-03-21T05:58:58;5.07;;;1.48;;
17494;SDS011;8864;51.970;4.614;2023-03-21T06:01:25;6.38;;;1.55;;
17494;SDS011;8864;51.970;4.614;2023-03-21T06:03:52;3.83;;;1.77;;
17494;SDS011;8864;51.970;4.614;2023-03-21T06:06:19;3.03;;;1.70;;
17494;SDS011;8864;51.970;4.614;2023-03-21T06:08:48;3.70;;;1.63;;
17494;SDS011;8864;51.970;4.614;2023-03-21T06:11:18;2.53;;;1.30;;
17494;SDS011;8864;51.970;4.614;2023-03-21T06:13:48;4.75;;;1.90;;
17494;SDS011;8864;51.970;4.614;2023-03-21T06:16:15;6.43;;;1.50;;
17494;SDS011;8864;51.970;4.614;2023-03-21T06:18:42;5.82;;;1.65;;
17494;SDS011;8864;51.970;4.614;2023-03-21T06:21:09;3.30;;;1.52;;
17494;SDS011;8864;51.970;4.614;2023-03-21T06:23:36;4.82;;;1.40;;
17494;SDS011;8864;51.970;4.614;2023-03-21T06:26:05;3.83;;;1.27;;
17494;SDS011;8864;51.970;4.614;2023-03-21T06:28:33;5.25;;;1.67;;
17494;SDS011;8864;51.970;4.614;2023-03-21T06:31:00;3.08;;;1.80;;
17494;SDS011;8864;51.970;4.614;2023-03-21T06:33:27;3.10;;;1.48;;
17494;SDS011;8864;51.970;4.614;2023-03-21T06:35:55;5.13;;;1.70;;
17494;SDS011;8864;51.970;4.614;2023-03-21T06:38:26;2.60;;;1.27;;
17494;SDS011;8864;51.970;4.614;2023-03-21T06:40:53;5.00;;;1.92;;
17494;SDS011;8864;51.970;4.614;2023-03-21T06:43:21;4.20;;;1.73;;
17494;SDS011;8864;51.970;4.614;2023-03-21T06:45:48;2.47;;;1.48;;
17494;SDS011;8864;51.970;4.614;2023-03-21T06:48:15;3.72;;;1.50;;
17494;SDS011;8864;51.970;4.614;2023-03-21T06:50:42;2.83;;;1.42;;
17494;SDS011;8864;51.970;4.614;2023-03-21T06:53:09;2.92;;;1.60;;
17494;SDS011;8864;51.970;4.614;2023-03-21T06:55:36;5.80;;;1.63;;
17494;SDS011;8864;51.970;4.614;2023-03-21T06:58:03;4.07;;;1.50;;
17494;SDS011;8864;51.970;4.614;2023-03-21T07:00:31;4.63;;;1.83;;
17494;SDS011;8864;51.970;4.614;2023-03-21T07:02:59;3.63;;;1.48;;
17494;SDS011;8864;51.970;4.614;2023-03-21T07:05:26;6.78;;;1.83;;
17494;SDS011;8864;51.970;4.614;2023-03-21T07:07:53;3.47;;;1.90;;
17494;SDS011;8864;51.970;4.614;2023-03-21T07:10:22;4.15;;;1.67;;
17494;SDS011;8864;51.970;4.614;2023-03-21T07:12:49;3.40;;;1.63;;
17494;SDS011;8864;51.970;4.614;2023-03-21T07:15:16;2.97;;;1.33;;
17494;SDS011;8864;51.970;4.614;2023-03-21T07:17:45;5.40;;;2.05;;
17494;SDS011;8864;51.970;4.614;2023-03-21T07:20:12;15.45;;;4.30;;
17494;SDS011;8864;51.970;4.614;2023-03-21T07:22:39;16.02;;;3.00;;
17494;SDS011;8864;51.970;4.614;2023-03-21T07:25:06;12.75;;;3.40;;
17494;SDS011;8864;51.970;4.614;2023-03-21T07:27:34;23.40;;;5.93;;
17494;SDS011;8864;51.970;4.614;2023-03-21T07:30:01;21.73;;;5.05;;
17494;SDS011;8864;51.970;4.614;2023-03-21T07:32:31;22.48;;;4.53;;
17494;SDS011;8864;51.970;4.614;2023-03-21T07:34:59;23.75;;;5.43;;
17494;SDS011;8864;51.970;4.614;2023-03-21T07:37:26;25.95;;;5.10;;
17494;SDS011;8864;51.970;4.614;2023-03-21T07:39:53;21.85;;;5.07;;
17494;SDS011;8864;51.970;4.614;2023-03-21T07:42:20;26.25;;;4.85;;
17494;SDS011;8864;51.970;4.614;2023-03-21T07:44:47;26.02;;;4.95;;
17494;SDS011;8864;51.970;4.614;2023-03-21T07:47:14;14.32;;;4.00;;
17494;SDS011;8864;51.970;4.614;2023-03-21T07:49:41;20.45;;;5.07;;
17494;SDS011;8864;51.970;4.614;2023-03-21T07:52:10;23.55;;;4.90;;
17494;SDS011;8864;51.970;4.614;2023-03-21T07:54:37;18.42;;;4.63;;
17494;SDS011;8864;51.970;4.614;2023-03-21T07:57:03;17.08;;;4.13;;
17494;SDS011;8864;51.970;4.614;2023-03-21T07:59:31;15.27;;;3.50;;
17494;SDS011;8864;51.970;4.614;2023-03-21T08:01:58;16.40;;;4.13;;
17494;SDS011;8864;51.970;4.614;2023-03-21T08:04:25;17.88;;;4.10;;
17494;SDS011;8864;51.970;4.614;2023-03-21T08:06:52;14.80;;;3.97;;
17494;SDS011;8864;51.970;4.614;2023-03-21T08:09:20;13.18;;;3.83;;
17494;SDS011;8864;51.970;4.614;2023-03-21T08:11:47;12.95;;;3.70;;
17494;SDS011;8864;51.970;4.614;2023-03-21T08:14:14;12.45;;;3.15;;
17494;SDS011;8864;51.970;4.614;2023-03-21T08:16:40;11.32;;;3.22;;
17494;SDS011;8864;51.970;4.614;2023-03-21T08:19:07;12.57;;;3.17;;
17494;SDS011;8864;51.970;4.614;2023-03-21T08:21:34;12.70;;;3.40;;
17494;SDS011;8864;51.970;4.614;2023-03-21T08:24:03;16.35;;;2.90;;
17494;SDS011;8864;51.970;4.614;2023-03-21T08:26:32;12.48;;;3.05;;
17494;SDS011;8864;51.970;4.614;2023-03-21T08:28:59;13.18;;;3.03;;
17494;SDS011;8864;51.970;4.614;2023-03-21T08:31:26;9.70;;;3.20;;
17494;SDS011;8864;51.970;4.614;2023-03-21T08:33:55;7.95;;;2.78;;
17494;SDS011;8864;51.970;4.614;2023-03-21T08:36:23;11.60;;;3.22;;
17494;SDS011;8864;51.970;4.614;2023-03-21T08:38:50;11.02;;;2.45;;
17494;SDS011;8864;51.970;4.614;2023-03-21T08:41:21;5.13;;;2.35;;
17494;SDS011;8864;51.970;4.614;2023-03-21T08:43:51;7.10;;;2.42;;
17494;SDS011;8864;51.970;4.614;2023-03-21T08:46:18;9.10;;;2.70;;
17494;SDS011;8864;51.970;4.614;2023-03-21T08:48:45;5.38;;;2.20;;
17494;SDS011;8864;51.970;4.614;2023-03-21T08:51:12;7.28;;;2.17;;
17494;SDS011;8864;51.970;4.614;2023-03-21T08:53:39;7.28;;;2.22;;
17494;SDS011;8864;51.970;4.614;2023-03-21T08:56:08;6.40;;;2.45;;
17494;SDS011;8864;51.970;4.614;2023-03-21T08:58:35;5.22;;;2.28;;
17494;SDS011;8864;51.970;4.614;2023-03-21T09:01:05;6.68;;;2.50;;
17494;SDS011;8864;51.970;4.614;2023-03-21T09:03:35;7.25;;;2.22;;
17494;SDS011;8864;51.970;4.614;2023-03-21T09:06:02;6.65;;;2.13;;
17494;SDS011;8864;51.970;4.614;2023-03-21T09:08:29;5.75;;;2.13;;
17494;SDS011;8864;51.970;4.614;2023-03-21T09:10:59;5.80;;;1.90;;
17494;SDS011;8864;51.970;4.614;2023-03-21T09:13:26;10.77;;;2.17;;
17494;SDS011;8864;51.970;4.614;2023-03-21T09:15:53;7.50;;;2.20;;
17494;SDS011;8864;51.970;4.614;2023-03-21T09:18:23;8.23;;;2.17;;
17494;SDS011;8864;51.970;4.614;2023-03-21T09:21:09;7.32;;;2.20;;
17494;SDS011;8864;51.970;4.614;2023-03-21T09:23:38;6.97;;;2.17;;
17494;SDS011;8864;51.970;4.614;2023-03-21T09:26:06;4.78;;;1.95;;
17494;SDS011;8864;51.970;4.614;2023-03-21T09:28:33;8.15;;;2.15;;
17494;SDS011;8864;51.970;4.614;2023-03-21T09:31:01;6.45;;;1.95;;
17494;SDS011;8864;51.970;4.614;2023-03-21T09:33:29;6.32;;;2.10;;
17494;SDS011;8864;51.970;4.614;2023-03-21T09:35:57;4.05;;;1.70;;
17494;SDS011;8864;51.970;4.614;2023-03-21T09:38:24;7.20;;;2.38;;
17494;SDS011;8864;51.970;4.614;2023-03-21T09:40:56;7.63;;;2.20;;
17494;SDS011;8864;51.970;4.614;2023-03-21T09:43:34;7.93;;;2.30;;
17494;SDS011;8864;51.970;4.614;2023-03-21T09:46:12;4.70;;;2.05;;
17494;SDS011;8864;51.970;4.614;2023-03-21T09:48:48;8.32;;;2.50;;
17494;SDS011;8864;51.970;4.614;2023-03-21T09:51:21;6.32;;;2.05;;
17494;SDS011;8864;51.970;4.614;2023-03-21T09:53:52;7.80;;;2.40;;
17494;SDS011;8864;51.970;4.614;2023-03-21T09:56:22;6.03;;;2.15;;
17494;SDS011;8864;51.970;4.614;2023-03-21T09:58:51;8.18;;;2.40;;
17494;SDS011;8864;51.970;4.614;2023-03-21T10:01:22;6.93;;;1.90;;
17494;SDS011;8864;51.970;4.614;2023-03-21T10:03:54;10.15;;;2.10;;
17494;SDS011;8864;51.970;4.614;2023-03-21T10:06:23;5.95;;;2.00;;
17494;SDS011;8864;51.970;4.614;2023-03-21T10:08:53;5.32;;;2.10;;
17494;SDS011;8864;51.970;4.614;2023-03-21T10:11:23;7.75;;;2.17;;
17494;SDS011;8864;51.970;4.614;2023-03-21T10:13:53;5.65;;;1.88;;
17494;SDS011;8864;51.970;4.614;2023-03-21T10:16:23;5.93;;;1.90;;
17494;SDS011;8864;51.970;4.614;2023-03-21T10:18:55;6.07;;;2.00;;
17494;SDS011;8864;51.970;4.614;2023-03-21T10:21:25;5.35;;;2.00;;
17494;SDS011;8864;51.970;4.614;2023-03-21T10:23:54;4.32;;;1.83;;
17494;SDS011;8864;51.970;4.614;2023-03-21T10:26:23;5.20;;;2.03;;
17494;SDS011;8864;51.970;4.614;2023-03-21T10:28:51;9.80;;;2.20;;
17494;SDS011;8864;51.970;4.614;2023-03-21T10:31:21;4.85;;;1.95;;
17494;SDS011;8864;51.970;4.614;2023-03-21T10:33:50;8.07;;;2.40;;
17494;SDS011;8864;51.970;4.614;2023-03-21T10:36:21;5.38;;;2.28;;
17494;SDS011;8864;51.970;4.614;2023-03-21T10:38:51;6.82;;;2.20;;
17494;SDS011;8864;51.970;4.614;2023-03-21T10:41:21;7.15;;;2.38;;
17494;SDS011;8864;51.970;4.614;2023-03-21T10:44:03;9.57;;;1.95;;
17494;SDS011;8864;51.970;4.614;2023-03-21T10:46:31;5.50;;;2.35;;
17494;SDS011;8864;51.970;4.614;2023-03-21T10:48:59;6.97;;;2.10;;
17494;SDS011;8864;51.970;4.614;2023-03-21T10:51:29;6.90;;;2.22;;
17494;SDS011;8864;51.970;4.614;2023-03-21T10:53:59;7.85;;;2.15;;
17494;SDS011;8864;51.970;4.614;2023-03-21T10:56:31;6.65;;;2.10;;
17494;SDS011;8864;51.970;4.614;2023-03-21T10:59:03;7.15;;;2.13;;
17494;SDS011;8864;51.970;4.614;2023-03-21T11:01:34;6.65;;;2.47;;
17494;SDS011;8864;51.970;4.614;2023-03-21T11:04:05;6.20;;;2.13;;
17494;SDS011;8864;51.970;4.614;2023-03-21T11:06:37;5.68;;;2.05;;
17494;SDS011;8864;51.970;4.614;2023-03-21T11:09:07;5.90;;;2.15;;
17494;SDS011;8864;51.970;4.614;2023-03-21T11:11:39;8.93;;;2.85;;
17494;SDS011;8864;51.970;4.614;2023-03-21T11:14:23;7.45;;;2.17;;
17494;SDS011;8864;51.970;4.614;2023-03-21T11:16:52;5.60;;;2.10;;
17494;SDS011;8864;51.970;4.614;2023-03-21T11:19:20;7.82;;;2.40;;
17494;SDS011;8864;51.970;4.614;2023-03-21T11:21:57;5.38;;;2.22;;
17494;SDS011;8864;51.970;4.614;2023-03-21T11:24:27;7.15;;;2.05;;
17494;SDS011;8864;51.970;4.614;2023-03-21T11:26:55;5.10;;;1.88;;
17494;SDS011;8864;51.970;4.614;2023-03-21T11:29:28;7.40;;;2.22;;
17494;SDS011;8864;51.970;4.614;2023-03-21T11:31:57;10.85;;;2.22;;
17494;SDS011;8864;51.970;4.614;2023-03-21T11:34:27;5.53;;;2.17;;
17494;SDS011;8864;51.970;4.614;2023-03-21T11:37:00;6.03;;;2.03;;
17494;SDS011;8864;51.970;4.614;2023-03-21T11:39:31;5.32;;;2.00;;
17494;SDS011;8864;51.970;4.614;2023-03-21T11:42:01;7.60;;;2.20;;
17494;SDS011;8864;51.970;4.614;2023-03-21T11:44:29;5.93;;;2.20;;
17494;SDS011;8864;51.970;4.614;2023-03-21T11:46:59;6.20;;;2.17;;
17494;SDS011;8864;51.970;4.614;2023-03-21T11:49:26;6.47;;;2.70;;
17494;SDS011;8864;51.970;4.614;2023-03-21T11:52:04;6.20;;;2.13;;
17494;SDS011;8864;51.970;4.614;2023-03-21T11:54:57;5.13;;;2.22;;
17494;SDS011;8864;51.970;4.614;2023-03-21T11:57:46;9.43;;;2.10;;
17494;SDS011;8864;51.970;4.614;2023-03-21T12:00:22;4.93;;;1.95;;
17494;SDS011;8864;51.970;4.614;2023-03-21T12:03:00;5.88;;;1.88;;
17494;SDS011;8864;51.970;4.614;2023-03-21T12:05:51;6.78;;;2.22;;
17494;SDS011;8864;51.970;4.614;2023-03-21T12:08:25;5.72;;;2.08;;
17494;SDS011;8864;51.970;4.614;2023-03-21T12:11:02;5.88;;;2.05;;
17494;SDS011;8864;51.970;4.614;2023-03-21T12:13:40;6.65;;;2.53;;
17494;SDS011;8864;51.970;4.614;2023-03-21T12:16:26;6.75;;;2.40;;
17494;SDS011;8864;51.970;4.614;2023-03-21T12:19:04;4.28;;;2.08;;
17494;SDS011;8864;51.970;4.614;2023-03-21T12:21:39;4.78;;;2.00;;
17494;SDS011;8864;51.970;4.614;2023-03-21T12:24:19;6.53;;;2.55;;
17494;SDS011;8864;51.970;4.614;2023-03-21T12:26:51;4.85;;;2.55;;
17494;SDS011;8864;51.970;4.614;2023-03-21T12:29:28;4.93;;;2.30;;
17494;SDS011;8864;51.970;4.614;2023-03-21T12:35:01;6.55;;;2.33;;
17494;SDS011;8864;51.970;4.614;2023-03-21T12:37:52;3.63;;;1.95;;
17494;SDS011;8864;51.970;4.614;2023-03-21T12:40:31;11.73;;;2.50;;
17494;SDS011;8864;51.970;4.614;2023-03-21T12:43:13;8.20;;;2.30;;
17494;SDS011;8864;51.970;4.614;2023-03-21T12:45:59;5.07;;;1.90;;
17494;SDS011;8864;51.970;4.614;2023-03-21T12:48:31;7.93;;;2.35;;
17494;SDS011;8864;51.970;4.614;2023-03-21T12:51:06;5.30;;;2.45;;
17494;SDS011;8864;51.970;4.614;2023-03-21T12:53:42;10.13;;;2.80;;
17494;SDS011;8864;51.970;4.614;2023-03-21T12:56:17;7.93;;;2.40;;
17494;SDS011;8864;51.970;4.614;2023-03-21T12:58:50;5.57;;;2.50;;
17494;SDS011;8864;51.970;4.614;2023-03-21T13:01:22;6.22;;;2.40;;
17494;SDS011;8864;51.970;4.614;2023-03-21T13:03:51;7.45;;;2.75;;
17494;SDS011;8864;51.970;4.614;2023-03-21T13:06:31;4.68;;;1.92;;
17494;SDS011;8864;51.970;4.614;2023-03-21T13:09:01;6.15;;;2.33;;
17494;SDS011;8864;51.970;4.614;2023-03-21T13:11:36;5.47;;;2.60;;
17494;SDS011;8864;51.970;4.614;2023-03-21T13:14:04;7.03;;;2.83;;
17494;SDS011;8864;51.970;4.614;2023-03-21T13:16:34;6.28;;;2.63;;
17494;SDS011;8864;51.970;4.614;2023-03-21T13:19:08;6.55;;;2.30;;
17494;SDS011;8864;51.970;4.614;2023-03-21T13:21:42;4.80;;;2.22;;
17494;SDS011;8864;51.970;4.614;2023-03-21T13:27:27;4.95;;;2.20;;
17494;SDS011;8864;51.970;4.614;2023-03-21T13:29:59;4.72;;;2.15;;
17494;SDS011;8864;51.970;4.614;2023-03-21T13:32:31;5.00;;;2.30;;
17494;SDS011;8864;51.970;4.614;2023-03-21T13:35:00;4.63;;;2.08;;
17494;SDS011;8864;51.970;4.614;2023-03-21T13:37:38;3.80;;;1.90;;
17494;SDS011;8864;51.970;4.614;2023-03-21T13:40:19;2.70;;;1.75;;
17494;SDS011;8864;51.970;4.614;2023-03-21T13:42:51;3.67;;;1.70;;
17494;SDS011;8864;51.970;4.614;2023-03-21T13:45:25;3.22;;;1.42;;
17494;SDS011;8864;51.970;4.614;2023-03-21T13:47:56;1.80;;;1.33;;
17494;SDS011;8864;51.970;4.614;2023-03-21T13:53:21;5.78;;;1.83;;
17494;SDS011;8864;51.970;4.614;2023-03-21T13:58:51;3.08;;;1.60;;
17494;SDS011;8864;51.970;4.614;2023-03-21T14:01:33;5.53;;;1.95;;
17494;SDS011;8864;51.970;4.614;2023-03-21T14:04:09;4.53;;;1.70;;
17494;SDS011;8864;51.970;4.614;2023-03-21T14:06:41;3.72;;;1.50;;
17494;SDS011;8864;51.970;4.614;2023-03-21T14:09:16;3.65;;;1.70;;
17494;SDS011;8864;51.970;4.614;2023-03-21T14:11:50;3.88;;;1.63;;
17494;SDS011;8864;51.970;4.614;2023-03-21T14:14:21;3.70;;;1.73;;
17494;SDS011;8864;51.970;4.614;2023-03-21T14:16:51;4.43;;;1.73;;
17494;SDS011;8864;51.970;4.614;2023-03-21T14:19:18;4.53;;;2.30;;
17494;SDS011;8864;51.970;4.614;2023-03-21T14:21:46;3.80;;;1.60;;
17494;SDS011;8864;51.970;4.614;2023-03-21T14:24:17;5.00;;;1.45;;
17494;SDS011;8864;51.970;4.614;2023-03-21T14:26:47;2.25;;;1.50;;
17494;SDS011;8864;51.970;4.614;2023-03-21T14:29:17;3.25;;;1.55;;
17494;SDS011;8864;51.970;4.614;2023-03-21T14:31:50;4.50;;;1.60;;
17494;SDS011;8864;51.970;4.614;2023-03-21T14:34:17;3.58;;;1.38;;
17494;SDS011;8864;51.970;4.614;2023-03-21T14:36:45;6.22;;;1.60;;
17494;SDS011;8864;51.970;4.614;2023-03-21T14:39:13;3.83;;;1.70;;
17494;SDS011;8864;51.970;4.614;2023-03-21T14:41:43;4.43;;;1.67;;
17494;SDS011;8864;51.970;4.614;2023-03-21T14:44:21;3.15;;;1.40;;
17494;SDS011;8864;51.970;4.614;2023-03-21T14:46:53;3.17;;;1.55;;
17494;SDS011;8864;51.970;4.614;2023-03-21T14:49:26;4.18;;;1.77;;
17494;SDS011;8864;51.970;4.614;2023-03-21T14:51:55;5.38;;;1.42;;
17494;SDS011;8864;51.970;4.614;2023-03-21T14:54:24;3.08;;;1.45;;
17494;SDS011;8864;51.970;4.614;2023-03-21T14:56:53;3.13;;;1.55;;
17494;SDS011;8864;51.970;4.614;2023-03-21T14:59:26;2.15;;;1.33;;
17494;SDS011;8864;51.970;4.614;2023-03-21T15:01:58;2.40;;;1.17;;
17494;SDS011;8864;51.970;4.614;2023-03-21T15:04:28;14.32;;;2.25;;
17494;SDS011;8864;51.970;4.614;2023-03-21T15:06:57;4.28;;;1.45;;
17494;SDS011;8864;51.970;4.614;2023-03-21T15:09:29;3.38;;;1.30;;
17494;SDS011;8864;51.970;4.614;2023-03-21T15:11:57;3.08;;;1.10;;
17494;SDS011;8864;51.970;4.614;2023-03-21T15:14:27;7.25;;;1.40;;
17494;SDS011;8864;51.970;4.614;2023-03-21T15:16:57;1.75;;;1.20;;
17494;SDS011;8864;51.970;4.614;2023-03-21T15:19:30;3.47;;;1.50;;
17494;SDS011;8864;51.970;4.614;2023-03-21T15:22:01;3.03;;;1.10;;
17494;SDS011;8864;51.970;4.614;2023-03-21T15:24:35;7.32;;;1.27;;
17494;SDS011;8864;51.970;4.614;2023-03-21T15:27:06;3.47;;;1.17;;
17494;SDS011;8864;51.970;4.614;2023-03-21T15:29:39;6.72;;;1.40;;
17494;SDS011;8864;51.970;4.614;2023-03-21T15:32:11;8.20;;;1.67;;
17494;SDS011;8864;51.970;4.614;2023-03-21T15:34:41;8.82;;;1.30;;